Quincy, WA

6:18 PM PDT on September 19, 2014 (GMT -0700)
Bowers | Change Station
CLOSE
Current Station
Airport
Location: Ellensburg,
Elevation: 1762 ft
Nearby Weather Stations

Elev 1762 ft 47.03 °N, 120.53 °W | Updated 25 minutes ago

Clear
Clear
76 °F
Feels Like 76 °F
N
21
Wind Variable Wind from NNW

Today
High -- | Low -- °F
--% Chance of Precip.
Yesterday
High -- | Low -- °F
Precip. -- in
6:42 AM 7:03 PM
Waning Crescent, 15% visible
Pressure 29.98 in
Visibility 10.0 miles
Clouds Clear
Dew Point 52 °F
Humidity 43%
Rainfall 0.00 in
Snow Depth 0 in , 0 in , 0 in
UV 1 out of 12
Pollen 2.90 out of 12
Air Quality Not available.
Flu Activity Not available.
METAR KELN 200053Z AUTO 33018KT 10SM CLR 24/11 A3001 RMK AO2 PK WND 33028/0010 SLP152 T02440111

More Conditions Fewer Conditions

Pressure 29.98 in
Visibility 10.0 miles
Clouds Clear
Dew Point 52 °F
Humidity 43%
Rainfall 0.00 in
Snow Depth 0 in , 0 in , 0 in
UV 1 out of 12
Pollen 2.90 out of 12
Air Quality Not available.
Flu Activity Not available.
METAR KELN 200053Z AUTO 33018KT 10SM CLR 24/11 A3001 RMK AO2 PK WND 33028/0010 SLP152 T02440111

More Conditions Fewer Conditions

10-Day Weather Forecast

Almanac

Astronomy

Sep. 19, 2014 Rise Set
Actual Time 6:42 AM PDT 7:03 PM PDT
Civil Twilight 6:11 AM PDT 7:33 PM PDT
Nautical Twilight 5:35 AM PDT 8:09 PM PDT
Astronomical Twilight 4:58 AM PDT 8:46 PM PDT
Moon 2:18 AM PDT (9/19) 4:46 PM PDT (9/19)
Length of Visible Light 13h 21m
Length of Day
12h 20m
Tomorrow will be 3m 22s shorter.
Waning Crescent, 15% of the Moon is Illuminated
Today
Waning Crescent
Sep 24
New
Oct 1
First Quarter
Oct 8
Full
Oct 15
Last Quarter

Today's Extremes

State Highs State Lows

Community

WunderPhotos

Upload Photos

1,754,755 photos uploaded!

WunderBlogs® & News

Nearby

Snow Depth

Station Depth Elevation
June Lake 0 in 3340 ft
Green Lake 0 in 6000 ft
Dungeness 0 in 4100 ft
Park Creek Ridge 0 in 4600 ft
Moses Mountain 1 in 5300 ft

Earthquake Activity

City Distance Mag. Time & Date
No recent earthquake activity has been reported nearby.
Minimum magnitude displayed is 2.5.

Coastal Water Temperatures

Place Temperature
No Stations Reporting

Nearby Weather Stations